Sm Yantian — 3EHD2 — position and weather

sailwx.info

Track history (hours):
 
Tides and Currents Weather Stations Pressure Air Temp Water Temp Dewpoint Dewpoint Depression Visibility Wind Speed Wind Dir Waves Ship Positions

Sm Yantian

Last reported at 2018-Feb-12 00:32 UTC. Time now 2018-Feb-20 21:36 UTC.
Position N 34°28' W 124°27'.
Warning: this ship's position is 8 days out of date.

Length 304 m; draft 12.1 m.

Type: Ship (hazmat cat A). MMSI: 372025000.

Date/timePositionNaut miles runAvg speedWind from/ knotsBaromVisibWave heightAir tempDewpointWater temp
2018-Feb-12 00:32N 34°28' W 124°27'215.0
2018-Feb-12 00:23N 34°28' W 124°24'714.9
2018-Feb-11 23:55N 34°28' W 124°16'715.3
2018-Feb-11 23:29N 34°28' W 124°08'1215.3
2018-Feb-11 22:42N 34°28' W 123°53'415.2
2018-Feb-11 22:26N 34°28' W 123°48'715.1
2018-Feb-11 21:56N 34°28' W 123°39'614.7
2018-Feb-11 21:30N 34°28' W 123°32'814.8
2018-Feb-11 21:00N 34°27' W 123°22'714.9
2018-Feb-11 20:30N 34°27' W 123°13'814.9
2018-Feb-11 19:59N 34°27' W 123°04'714.7
2018-Feb-11 19:30N 34°27' W 122°55'814.8
2018-Feb-11 19:00N 34°27' W 122°46'714.9
2018-Feb-11 18:30N 34°27' W 122°38'815.0
2018-Feb-11 17:58N 34°27' W 122°28'914.8
2018-Feb-11 17:21N 34°27' W 122°17'614.7
2018-Feb-11 16:58N 34°27' W 122°10'814.8
2018-Feb-11 16:27N 34°26' W 122°00'715.0
2018-Feb-11 16:00N 34°26' W 121°52'715.1
2018-Feb-11 15:30N 34°26' W 121°43'814.9
2018-Feb-11 15:00N 34°25' W 121°34'815.1
2018-Feb-11 14:30N 34°24' W 121°25'815.0
2018-Feb-11 13:59N 34°24' W 121°16'715.1
2018-Feb-11 13:30N 34°24' W 121°07'815.2
2018-Feb-11 12:59N 34°25' W 120°58'815.2
2018-Feb-11 12:29N 34°25' W 120°48'815.7
2018-Feb-11 12:00N 34°23' W 120°39'815.6
2018-Feb-11 11:30N 34°21' W 120°30'815.5
2018-Feb-11 10:58N 34°19' W 120°20'715.7
2018-Feb-11 10:30N 34°17' W 120°12'915.8
2018-Feb-11 09:57N 34°14' W 120°02'715.7
2018-Feb-11 09:30N 34°13' W 119°54'815.7
2018-Feb-11 09:00N 34°11' W 119°44'915.7
2018-Feb-11 08:26N 34°08' W 119°34'715.8
2018-Feb-11 07:59N 34°07' W 119°26'815.9
2018-Feb-11 07:29N 34°05' W 119°16'815.6
2018-Feb-11 06:59N 34°01' W 119°08'814.2
2018-Feb-11 06:26N 33°57' W 118°60'511.9
2018-Feb-11 05:59N 33°54' W 118°54'611.9
2018-Feb-11 05:30N 33°51' W 118°48'611.7
2018-Feb-11 05:01N 33°49' W 118°42'611.9
2018-Feb-11 04:31N 33°46' W 118°36'611.7
2018-Feb-11 04:00N 33°43' W 118°30'611.7
2018-Feb-11 03:30N 33°40' W 118°24'611.4
2018-Feb-11 03:00N 33°38' W 118°17'510.4
2018-Feb-11 02:30N 33°41' W 118°12'3 6.9
2018-Feb-11 02:01N 33°44' W 118°13'2 3.7
2018-Feb-11 01:30N 33°46' W 118°14'0 0.9
2018-Feb-11 01:00N 33°46' W 118°14'0 0.0
2018-Feb-11 00:30N 33°46' W 118°14'0 0.0
2018-Feb-11 00:00N 33°46' W 118°14'0 0.0
2018-Feb-10 23:27N 33°46' W 118°14'0 0.0
2018-Feb-10 23:00N 33°46' W 118°14'0 0.0
2018-Feb-10 22:30N 33°46' W 118°14'0 0.0
2018-Feb-10 22:00N 33°46' W 118°14'0 0.0
2018-Feb-10 21:30N 33°46' W 118°14'0 0.0
2018-Feb-10 21:00N 33°46' W 118°14'0 0.0
2018-Feb-10 20:30N 33°46' W 118°14'0 0.0
2018-Feb-10 20:00N 33°46' W 118°14'0 0.0
2018-Feb-10 19:30N 33°46' W 118°14'0 0.0
2018-Feb-10 19:00N 33°46' W 118°14'0 0.0
2018-Feb-10 18:30N 33°46' W 118°14'0 0.0
2018-Feb-10 18:00N 33°46' W 118°14'0 0.0
2018-Feb-10 17:30N 33°46' W 118°14'0 0.0
2018-Feb-10 17:00N 33°46' W 118°14'0 0.0
2018-Feb-10 16:30N 33°46' W 118°14'0 0.0
2018-Feb-10 16:00N 33°46' W 118°14'0 0.0
2018-Feb-10 15:30N 33°46' W 118°14'0 0.0
2018-Feb-10 15:00N 33°46' W 118°14'0 0.0
2018-Feb-10 14:30N 33°46' W 118°14'0 0.0
2018-Feb-10 14:00N 33°46' W 118°14'0 0.0
2018-Feb-10 13:30N 33°46' W 118°14'0 0.0
2018-Feb-10 13:00N 33°46' W 118°14'0 0.0
2018-Feb-10 12:30N 33°46' W 118°14'0 0.0
2018-Feb-10 12:00N 33°46' W 118°14'0 0.0
2018-Feb-10 11:30N 33°46' W 118°14'0 0.0
2018-Feb-10 11:00N 33°46' W 118°14'0 0.0
2018-Feb-10 10:30N 33°46' W 118°14'0 0.0
2018-Feb-10 10:00N 33°46' W 118°14'0 0.0
2018-Feb-10 09:30N 33°46' W 118°14'0 0.0
2018-Feb-10 09:00N 33°46' W 118°14'0 0.0
2018-Feb-10 08:30N 33°46' W 118°14'0 0.0
2018-Feb-10 08:00N 33°46' W 118°14'0 0.0
2018-Feb-10 07:30N 33°46' W 118°14'0 0.0
2018-Feb-10 07:00N 33°46' W 118°14'0 0.0
2018-Feb-10 06:30N 33°46' W 118°14'0 0.0
2018-Feb-10 06:00N 33°46' W 118°14'0 0.0
2018-Feb-10 05:30N 33°46' W 118°14'0 0.0
2018-Feb-10 05:00N 33°46' W 118°14'0 0.0
2018-Feb-10 04:30N 33°46' W 118°14'0 0.0
2018-Feb-10 04:00N 33°46' W 118°14'0 0.0
2018-Feb-10 03:30N 33°46' W 118°14'0 0.0
2018-Feb-10 03:00N 33°46' W 118°14'0 0.0
2018-Feb-10 02:30N 33°46' W 118°14'0 0.0
2018-Feb-10 02:00N 33°46' W 118°14'0 0.0
2018-Feb-10 01:27N 33°46' W 118°14'0 0.0
2018-Feb-10 01:00N 33°46' W 118°14'0 0.0
2018-Feb-10 00:30N 33°46' W 118°14'0 0.0
2018-Feb-10 00:00N 33°46' W 118°14'0 0.0
2018-Feb-09 23:30N 33°46' W 118°14'0 0.0
2018-Feb-09 22:57N 33°46' W 118°14'0 0.0
2018-Feb-09 22:45N 33°46' W 118°14'16 0.5
2018-Feb-08 11:00N 33°41' W 118°33'4711.8
2018-Feb-08 07:00N 34°03' W 119°22'1111.1
2018-Feb-08 06:00N 34°07' W 119°35'6414.2
2018-Feb-08 01:30N 34°24' W 120°50'714.4
2018-Feb-08 01:00N 34°26' W 120°58'714.3
2018-Feb-08 00:30N 34°29' W 121°06'714.7
2018-Feb-08 00:00N 34°32' W 121°14'612.1
2018-Feb-07 23:31N 34°35' W 121°20'713.0
2018-Feb-07 23:01N 34°37' W 121°27'815.5
2018-Feb-07 22:30N 34°41' W 121°36'815.5
2018-Feb-07 22:00N 34°44' W 121°44'815.5
2018-Feb-07 21:31N 34°48' W 121°53'24417.1
2018-Feb-07 07:15N 36°32' W 126°24'1517.4
2018-Feb-07 06:23N 36°38' W 126°41'1017.2
2018-Feb-07 05:47N 36°42' W 126°53'617.3
2018-Feb-07 05:28N 36°44' W 126°60'817.2
2018-Feb-07 05:00N 36°48' W 127°09'917.3
2018-Feb-07 04:30N 36°51' W 127°18'917.8
2018-Feb-07 04:00N 36°55' W 127°28'918.0
2018-Feb-07 03:30N 36°58' W 127°39'917.8
2018-Feb-07 03:00N 37°02' W 127°49'3617.6
2018-Feb-07 00:56N 37°16' W 128°31'2617.3
2018-Feb-06 23:26N 37°26' W 129°02'817.5
2018-Feb-06 23:00N 37°29' W 129°10'  
Track history (hours):
 
Tides and Currents Weather Stations Pressure Air Temp Water Temp Dewpoint Dewpoint Depression Visibility Wind Speed Wind Dir Waves Ship Positions

Sm Yantian

Last reported at 2018-Feb-12 00:32 UTC. Time now 2018-Feb-20 21:36 UTC.
Position N 34°28' W 124°27'.
Warning: this ship's position is 8 days out of date.

Length 304 m; draft 12.1 m.

Type: Ship (hazmat cat A). MMSI: 372025000.

Date/timePositionNaut miles runAvg speedWind from/ knotsBaromVisibWave heightAir tempDewpointWater temp
2018-Feb-12 00:32N 34°28' W 124°27'215.0
2018-Feb-12 00:23N 34°28' W 124°24'714.9
2018-Feb-11 23:55N 34°28' W 124°16'715.3
2018-Feb-11 23:29N 34°28' W 124°08'1215.3
2018-Feb-11 22:42N 34°28' W 123°53'415.2
2018-Feb-11 22:26N 34°28' W 123°48'715.1
2018-Feb-11 21:56N 34°28' W 123°39'614.7
2018-Feb-11 21:30N 34°28' W 123°32'814.8
2018-Feb-11 21:00N 34°27' W 123°22'714.9
2018-Feb-11 20:30N 34°27' W 123°13'814.9
2018-Feb-11 19:59N 34°27' W 123°04'714.7
2018-Feb-11 19:30N 34°27' W 122°55'814.8
2018-Feb-11 19:00N 34°27' W 122°46'714.9
2018-Feb-11 18:30N 34°27' W 122°38'815.0
2018-Feb-11 17:58N 34°27' W 122°28'914.8
2018-Feb-11 17:21N 34°27' W 122°17'614.7
2018-Feb-11 16:58N 34°27' W 122°10'814.8
2018-Feb-11 16:27N 34°26' W 122°00'715.0
2018-Feb-11 16:00N 34°26' W 121°52'715.1
2018-Feb-11 15:30N 34°26' W 121°43'814.9
2018-Feb-11 15:00N 34°25' W 121°34'815.1
2018-Feb-11 14:30N 34°24' W 121°25'815.0
2018-Feb-11 13:59N 34°24' W 121°16'715.1
2018-Feb-11 13:30N 34°24' W 121°07'815.2
2018-Feb-11 12:59N 34°25' W 120°58'815.2
2018-Feb-11 12:29N 34°25' W 120°48'815.7
2018-Feb-11 12:00N 34°23' W 120°39'815.6
2018-Feb-11 11:30N 34°21' W 120°30'815.5
2018-Feb-11 10:58N 34°19' W 120°20'715.7
2018-Feb-11 10:30N 34°17' W 120°12'915.8
2018-Feb-11 09:57N 34°14' W 120°02'715.7
2018-Feb-11 09:30N 34°13' W 119°54'815.7
2018-Feb-11 09:00N 34°11' W 119°44'915.7
2018-Feb-11 08:26N 34°08' W 119°34'715.8
2018-Feb-11 07:59N 34°07' W 119°26'815.9
2018-Feb-11 07:29N 34°05' W 119°16'815.6
2018-Feb-11 06:59N 34°01' W 119°08'814.2
2018-Feb-11 06:26N 33°57' W 118°60'511.9
2018-Feb-11 05:59N 33°54' W 118°54'611.9
2018-Feb-11 05:30N 33°51' W 118°48'611.7
2018-Feb-11 05:01N 33°49' W 118°42'611.9
2018-Feb-11 04:31N 33°46' W 118°36'611.7
2018-Feb-11 04:00N 33°43' W 118°30'611.7
2018-Feb-11 03:30N 33°40' W 118°24'611.4
2018-Feb-11 03:00N 33°38' W 118°17'510.4
2018-Feb-11 02:30N 33°41' W 118°12'3 6.9
2018-Feb-11 02:01N 33°44' W 118°13'2 3.7
2018-Feb-11 01:30N 33°46' W 118°14'0 0.9
2018-Feb-11 01:00N 33°46' W 118°14'0 0.0
2018-Feb-11 00:30N 33°46' W 118°14'0 0.0
2018-Feb-11 00:00N 33°46' W 118°14'0 0.0
2018-Feb-10 23:27N 33°46' W 118°14'0 0.0
2018-Feb-10 23:00N 33°46' W 118°14'0 0.0
2018-Feb-10 22:30N 33°46' W 118°14'0 0.0
2018-Feb-10 22:00N 33°46' W 118°14'0 0.0
2018-Feb-10 21:30N 33°46' W 118°14'0 0.0
2018-Feb-10 21:00N 33°46' W 118°14'0 0.0
2018-Feb-10 20:30N 33°46' W 118°14'0 0.0
2018-Feb-10 20:00N 33°46' W 118°14'0 0.0
2018-Feb-10 19:30N 33°46' W 118°14'0 0.0
2018-Feb-10 19:00N 33°46' W 118°14'0 0.0
2018-Feb-10 18:30N 33°46' W 118°14'0 0.0
2018-Feb-10 18:00N 33°46' W 118°14'0 0.0
2018-Feb-10 17:30N 33°46' W 118°14'0 0.0
2018-Feb-10 17:00N 33°46' W 118°14'0 0.0
2018-Feb-10 16:30N 33°46' W 118°14'0 0.0
2018-Feb-10 16:00N 33°46' W 118°14'0 0.0
2018-Feb-10 15:30N 33°46' W 118°14'0 0.0
2018-Feb-10 15:00N 33°46' W 118°14'0 0.0
2018-Feb-10 14:30N 33°46' W 118°14'0 0.0
2018-Feb-10 14:00N 33°46' W 118°14'0 0.0
2018-Feb-10 13:30N 33°46' W 118°14'0 0.0
2018-Feb-10 13:00N 33°46' W 118°14'0 0.0
2018-Feb-10 12:30N 33°46' W 118°14'0 0.0
2018-Feb-10 12:00N 33°46' W 118°14'0 0.0
2018-Feb-10 11:30N 33°46' W 118°14'0 0.0
2018-Feb-10 11:00N 33°46' W 118°14'0 0.0
2018-Feb-10 10:30N 33°46' W 118°14'0 0.0
2018-Feb-10 10:00N 33°46' W 118°14'0 0.0
2018-Feb-10 09:30N 33°46' W 118°14'0 0.0
2018-Feb-10 09:00N 33°46' W 118°14'0 0.0
2018-Feb-10 08:30N 33°46' W 118°14'0 0.0
2018-Feb-10 08:00N 33°46' W 118°14'0 0.0
2018-Feb-10 07:30N 33°46' W 118°14'0 0.0
2018-Feb-10 07:00N 33°46' W 118°14'0 0.0
2018-Feb-10 06:30N 33°46' W 118°14'0 0.0
2018-Feb-10 06:00N 33°46' W 118°14'0 0.0
2018-Feb-10 05:30N 33°46' W 118°14'0 0.0
2018-Feb-10 05:00N 33°46' W 118°14'0 0.0
2018-Feb-10 04:30N 33°46' W 118°14'0 0.0
2018-Feb-10 04:00N 33°46' W 118°14'0 0.0
2018-Feb-10 03:30N 33°46' W 118°14'0 0.0
2018-Feb-10 03:00N 33°46' W 118°14'0 0.0
2018-Feb-10 02:30N 33°46' W 118°14'0 0.0
2018-Feb-10 02:00N 33°46' W 118°14'0 0.0
2018-Feb-10 01:27N 33°46' W 118°14'0 0.0
2018-Feb-10 01:00N 33°46' W 118°14'0 0.0
2018-Feb-10 00:30N 33°46' W 118°14'0 0.0
2018-Feb-10 00:00N 33°46' W 118°14'0 0.0
2018-Feb-09 23:30N 33°46' W 118°14'0 0.0
2018-Feb-09 22:57N 33°46' W 118°14'0 0.0
2018-Feb-09 22:45N 33°46' W 118°14'16 0.5
2018-Feb-08 11:00N 33°41' W 118°33'4711.8
2018-Feb-08 07:00N 34°03' W 119°22'1111.1
2018-Feb-08 06:00N 34°07' W 119°35'6414.2
2018-Feb-08 01:30N 34°24' W 120°50'714.4
2018-Feb-08 01:00N 34°26' W 120°58'714.3
2018-Feb-08 00:30N 34°29' W 121°06'714.7
2018-Feb-08 00:00N 34°32' W 121°14'612.1
2018-Feb-07 23:31N 34°35' W 121°20'713.0
2018-Feb-07 23:01N 34°37' W 121°27'815.5
2018-Feb-07 22:30N 34°41' W 121°36'815.5
2018-Feb-07 22:00N 34°44' W 121°44'815.5
2018-Feb-07 21:31N 34°48' W 121°53'24417.1
2018-Feb-07 07:15N 36°32' W 126°24'1517.4
2018-Feb-07 06:23N 36°38' W 126°41'1017.2
2018-Feb-07 05:47N 36°42' W 126°53'617.3
2018-Feb-07 05:28N 36°44' W 126°60'817.2
2018-Feb-07 05:00N 36°48' W 127°09'917.3
2018-Feb-07 04:30N 36°51' W 127°18'917.8
2018-Feb-07 04:00N 36°55' W 127°28'918.0
2018-Feb-07 03:30N 36°58' W 127°39'917.8
2018-Feb-07 03:00N 37°02' W 127°49'3617.6
2018-Feb-07 00:56N 37°16' W 128°31'2617.3
2018-Feb-06 23:26N 37°26' W 129°02'817.5
2018-Feb-06 23:00N 37°29' W 129°10'  

Dump ship's entire track history